sensor_id;sensor_type;location;lat;lon;timestamp;temperature;humidity
12655;DHT22;6392;44.644;11.448;2023-07-13T00:00:10;27.50;99.90
12655;DHT22;6392;44.644;11.448;2023-07-13T00:02:38;27.40;99.90
12655;DHT22;6392;44.644;11.448;2023-07-13T00:05:06;27.30;99.90
12655;DHT22;6392;44.644;11.448;2023-07-13T00:07:34;27.30;99.90
12655;DHT22;6392;44.644;11.448;2023-07-13T00:10:01;27.30;99.90
12655;DHT22;6392;44.644;11.448;2023-07-13T00:12:29;27.30;99.90
12655;DHT22;6392;44.644;11.448;2023-07-13T00:14:57;27.30;99.90
12655;DHT22;6392;44.644;11.448;2023-07-13T00:17:26;27.30;99.90
12655;DHT22;6392;44.644;11.448;2023-07-13T00:19:55;27.30;99.90
12655;DHT22;6392;44.644;11.448;2023-07-13T00:22:24;27.30;99.90
12655;DHT22;6392;44.644;11.448;2023-07-13T00:24:52;27.30;99.90
12655;DHT22;6392;44.644;11.448;2023-07-13T00:27:22;27.30;99.90
12655;DHT22;6392;44.644;11.448;2023-07-13T00:29:49;27.30;99.90
12655;DHT22;6392;44.644;11.448;2023-07-13T00:32:16;27.20;99.90
12655;DHT22;6392;44.644;11.448;2023-07-13T00:34:43;27.20;99.90
12655;DHT22;6392;44.644;11.448;2023-07-13T00:37:11;27.20;99.90
12655;DHT22;6392;44.644;11.448;2023-07-13T00:39:38;27.20;99.90
12655;DHT22;6392;44.644;11.448;2023-07-13T00:42:05;27.10;99.90
12655;DHT22;6392;44.644;11.448;2023-07-13T00:44:33;27.10;99.90
12655;DHT22;6392;44.644;11.448;2023-07-13T00:47:00;27.10;99.90
12655;DHT22;6392;44.644;11.448;2023-07-13T00:49:29;27.10;99.90
12655;DHT22;6392;44.644;11.448;2023-07-13T00:51:59;27.10;99.90
12655;DHT22;6392;44.644;11.448;2023-07-13T00:54:31;27.00;99.90
12655;DHT22;6392;44.644;11.448;2023-07-13T00:57:01;27.00;99.90
12655;DHT22;6392;44.644;11.448;2023-07-13T00:59:28;27.10;99.90
12655;DHT22;6392;44.644;11.448;2023-07-13T01:01:56;27.10;99.90
12655;DHT22;6392;44.644;11.448;2023-07-13T01:04:24;27.00;99.90
12655;DHT22;6392;44.644;11.448;2023-07-13T01:06:51;27.00;99.90
12655;DHT22;6392;44.644;11.448;2023-07-13T01:09:20;27.10;99.90
12655;DHT22;6392;44.644;11.448;2023-07-13T01:11:48;27.10;99.90
12655;DHT22;6392;44.644;11.448;2023-07-13T01:14:16;27.10;99.90
12655;DHT22;6392;44.644;11.448;2023-07-13T01:16:45;27.10;99.90
12655;DHT22;6392;44.644;11.448;2023-07-13T01:19:26;27.20;99.90
12655;DHT22;6392;44.644;11.448;2023-07-13T01:22:05;27.10;99.90
12655;DHT22;6392;44.644;11.448;2023-07-13T01:24:34;27.10;99.90
12655;DHT22;6392;44.644;11.448;2023-07-13T01:27:01;27.10;99.90
12655;DHT22;6392;44.644;11.448;2023-07-13T01:29:31;27.10;99.90
12655;DHT22;6392;44.644;11.448;2023-07-13T01:31:58;27.10;99.90
12655;DHT22;6392;44.644;11.448;2023-07-13T01:34:25;27.20;99.90
12655;DHT22;6392;44.644;11.448;2023-07-13T01:36:53;27.30;99.90
12655;DHT22;6392;44.644;11.448;2023-07-13T01:39:22;27.30;99.90
12655;DHT22;6392;44.644;11.448;2023-07-13T01:41:49;27.40;99.90
12655;DHT22;6392;44.644;11.448;2023-07-13T01:44:16;27.50;99.90
12655;DHT22;6392;44.644;11.448;2023-07-13T01:46:43;27.50;99.90
12655;DHT22;6392;44.644;11.448;2023-07-13T01:49:10;27.60;99.90
12655;DHT22;6392;44.644;11.448;2023-07-13T01:51:37;27.60;99.90
12655;DHT22;6392;44.644;11.448;2023-07-13T01:54:04;27.60;99.90
12655;DHT22;6392;44.644;11.448;2023-07-13T01:56:32;27.60;99.90
12655;DHT22;6392;44.644;11.448;2023-07-13T01:58:59;27.60;99.90
12655;DHT22;6392;44.644;11.448;2023-07-13T02:01:26;27.60;99.90
12655;DHT22;6392;44.644;11.448;2023-07-13T02:03:53;27.50;99.90
12655;DHT22;6392;44.644;11.448;2023-07-13T02:06:21;27.50;99.90
12655;DHT22;6392;44.644;11.448;2023-07-13T02:08:47;27.50;99.90
12655;DHT22;6392;44.644;11.448;2023-07-13T02:11:15;27.50;99.90
12655;DHT22;6392;44.644;11.448;2023-07-13T02:13:43;27.50;99.90
12655;DHT22;6392;44.644;11.448;2023-07-13T02:16:10;27.40;99.90
12655;DHT22;6392;44.644;11.448;2023-07-13T02:18:37;27.30;99.90
12655;DHT22;6392;44.644;11.448;2023-07-13T02:21:04;27.30;99.90
12655;DHT22;6392;44.644;11.448;2023-07-13T02:23:31;27.10;99.90
12655;DHT22;6392;44.644;11.448;2023-07-13T02:26:00;27.00;99.90
12655;DHT22;6392;44.644;11.448;2023-07-13T02:28:28;27.00;99.90
12655;DHT22;6392;44.644;11.448;2023-07-13T02:31:04;27.00;99.90
12655;DHT22;6392;44.644;11.448;2023-07-13T02:33:31;27.10;99.90
12655;DHT22;6392;44.644;11.448;2023-07-13T02:35:58;27.10;99.90
12655;DHT22;6392;44.644;11.448;2023-07-13T02:38:25;27.10;99.90
12655;DHT22;6392;44.644;11.448;2023-07-13T02:40:53;27.20;99.90
12655;DHT22;6392;44.644;11.448;2023-07-13T02:43:20;27.20;99.90
12655;DHT22;6392;44.644;11.448;2023-07-13T02:45:47;27.20;99.90
12655;DHT22;6392;44.644;11.448;2023-07-13T02:48:16;27.20;99.90
12655;DHT22;6392;44.644;11.448;2023-07-13T02:50:44;27.10;99.90
12655;DHT22;6392;44.644;11.448;2023-07-13T02:53:11;27.10;99.90
12655;DHT22;6392;44.644;11.448;2023-07-13T02:55:38;27.10;99.90
12655;DHT22;6392;44.644;11.448;2023-07-13T02:58:06;27.10;99.90
12655;DHT22;6392;44.644;11.448;2023-07-13T03:00:33;27.00;99.90
12655;DHT22;6392;44.644;11.448;2023-07-13T03:03:00;27.00;99.90
12655;DHT22;6392;44.644;11.448;2023-07-13T03:05:29;27.00;99.90
12655;DHT22;6392;44.644;11.448;2023-07-13T03:07:56;26.90;99.90
12655;DHT22;6392;44.644;11.448;2023-07-13T03:10:23;26.90;99.90
12655;DHT22;6392;44.644;11.448;2023-07-13T03:12:50;26.90;99.90
12655;DHT22;6392;44.644;11.448;2023-07-13T03:15:17;27.00;99.90
12655;DHT22;6392;44.644;11.448;2023-07-13T03:17:44;27.00;99.90
12655;DHT22;6392;44.644;11.448;2023-07-13T03:20:12;26.90;99.90
12655;DHT22;6392;44.644;11.448;2023-07-13T03:22:40;26.90;99.90
12655;DHT22;6392;44.644;11.448;2023-07-13T03:25:08;26.90;99.90
12655;DHT22;6392;44.644;11.448;2023-07-13T03:27:36;26.90;99.90
12655;DHT22;6392;44.644;11.448;2023-07-13T03:30:04;26.90;99.90
12655;DHT22;6392;44.644;11.448;2023-07-13T03:32:31;26.90;99.90
12655;DHT22;6392;44.644;11.448;2023-07-13T03:34:58;26.90;99.90
12655;DHT22;6392;44.644;11.448;2023-07-13T03:37:27;26.80;99.90
12655;DHT22;6392;44.644;11.448;2023-07-13T03:39:55;26.80;99.90
12655;DHT22;6392;44.644;11.448;2023-07-13T03:42:22;26.80;99.90
12655;DHT22;6392;44.644;11.448;2023-07-13T03:44:49;26.80;99.90
12655;DHT22;6392;44.644;11.448;2023-07-13T03:47:18;26.70;99.90
12655;DHT22;6392;44.644;11.448;2023-07-13T03:49:45;26.70;99.90
12655;DHT22;6392;44.644;11.448;2023-07-13T03:52:12;26.70;99.90
12655;DHT22;6392;44.644;11.448;2023-07-13T03:54:39;26.70;99.90
12655;DHT22;6392;44.644;11.448;2023-07-13T03:57:08;26.70;99.90
12655;DHT22;6392;44.644;11.448;2023-07-13T03:59:35;26.70;99.90
12655;DHT22;6392;44.644;11.448;2023-07-13T04:02:02;26.80;99.90
12655;DHT22;6392;44.644;11.448;2023-07-13T04:04:30;26.80;99.90
12655;DHT22;6392;44.644;11.448;2023-07-13T04:06:57;26.80;99.90
12655;DHT22;6392;44.644;11.448;2023-07-13T04:09:25;26.80;99.90
12655;DHT22;6392;44.644;11.448;2023-07-13T04:11:52;26.70;99.90
12655;DHT22;6392;44.644;11.448;2023-07-13T04:14:20;26.60;99.90
12655;DHT22;6392;44.644;11.448;2023-07-13T04:16:47;26.60;99.90
12655;DHT22;6392;44.644;11.448;2023-07-13T04:19:14;26.60;99.90
12655;DHT22;6392;44.644;11.448;2023-07-13T04:21:41;26.70;99.90
12655;DHT22;6392;44.644;11.448;2023-07-13T04:24:09;26.80;99.90
12655;DHT22;6392;44.644;11.448;2023-07-13T04:26:36;26.90;99.90
12655;DHT22;6392;44.644;11.448;2023-07-13T04:29:04;26.90;99.90
12655;DHT22;6392;44.644;11.448;2023-07-13T04:31:33;26.90;99.90
12655;DHT22;6392;44.644;11.448;2023-07-13T04:34:00;26.90;99.90
12655;DHT22;6392;44.644;11.448;2023-07-13T04:36:28;26.80;99.90
12655;DHT22;6392;44.644;11.448;2023-07-13T04:38:55;26.80;99.90
12655;DHT22;6392;44.644;11.448;2023-07-13T04:41:22;26.70;99.90
12655;DHT22;6392;44.644;11.448;2023-07-13T04:43:49;26.70;99.90
12655;DHT22;6392;44.644;11.448;2023-07-13T04:46:17;26.80;99.90
12655;DHT22;6392;44.644;11.448;2023-07-13T04:48:46;26.80;99.90
12655;DHT22;6392;44.644;11.448;2023-07-13T04:51:13;26.90;99.90
12655;DHT22;6392;44.644;11.448;2023-07-13T04:53:40;26.80;99.90
12655;DHT22;6392;44.644;11.448;2023-07-13T04:56:07;26.80;99.90
12655;DHT22;6392;44.644;11.448;2023-07-13T04:58:34;26.80;99.90
12655;DHT22;6392;44.644;11.448;2023-07-13T05:01:02;26.90;99.90
12655;DHT22;6392;44.644;11.448;2023-07-13T05:03:29;26.90;99.90
12655;DHT22;6392;44.644;11.448;2023-07-13T05:05:59;26.80;99.90
12655;DHT22;6392;44.644;11.448;2023-07-13T05:08:26;26.90;99.90
12655;DHT22;6392;44.644;11.448;2023-07-13T05:10:54;26.80;99.90
12655;DHT22;6392;44.644;11.448;2023-07-13T05:13:21;26.80;99.90
12655;DHT22;6392;44.644;11.448;2023-07-13T05:15:55;26.80;99.90
12655;DHT22;6392;44.644;11.448;2023-07-13T05:18:23;26.70;99.90
12655;DHT22;6392;44.644;11.448;2023-07-13T05:20:59;26.80;99.90
12655;DHT22;6392;44.644;11.448;2023-07-13T05:23:26;26.80;99.90
12655;DHT22;6392;44.644;11.448;2023-07-13T05:25:53;26.90;99.90
12655;DHT22;6392;44.644;11.448;2023-07-13T05:28:21;27.00;99.90
12655;DHT22;6392;44.644;11.448;2023-07-13T05:30:48;27.00;99.90
12655;DHT22;6392;44.644;11.448;2023-07-13T05:33:16;27.00;99.90
12655;DHT22;6392;44.644;11.448;2023-07-13T05:35:43;27.00;99.90
12655;DHT22;6392;44.644;11.448;2023-07-13T05:38:12;27.00;99.90
12655;DHT22;6392;44.644;11.448;2023-07-13T05:40:39;27.00;99.90
12655;DHT22;6392;44.644;11.448;2023-07-13T05:43:06;27.00;99.90
12655;DHT22;6392;44.644;11.448;2023-07-13T05:45:32;27.00;99.90
12655;DHT22;6392;44.644;11.448;2023-07-13T05:48:00;27.10;99.90
12655;DHT22;6392;44.644;11.448;2023-07-13T05:50:27;27.10;99.90
12655;DHT22;6392;44.644;11.448;2023-07-13T05:52:54;27.20;99.90
12655;DHT22;6392;44.644;11.448;2023-07-13T05:55:23;27.30;99.90
12655;DHT22;6392;44.644;11.448;2023-07-13T05:57:50;27.30;99.90
12655;DHT22;6392;44.644;11.448;2023-07-13T06:00:17;27.30;99.90
12655;DHT22;6392;44.644;11.448;2023-07-13T06:02:45;27.30;99.90
12655;DHT22;6392;44.644;11.448;2023-07-13T06:05:12;27.30;99.90
12655;DHT22;6392;44.644;11.448;2023-07-13T06:07:39;27.30;99.90
12655;DHT22;6392;44.644;11.448;2023-07-13T06:10:06;27.30;99.90
12655;DHT22;6392;44.644;11.448;2023-07-13T06:12:35;27.30;99.90
12655;DHT22;6392;44.644;11.448;2023-07-13T06:15:02;27.40;99.90
12655;DHT22;6392;44.644;11.448;2023-07-13T06:17:29;27.40;99.90
12655;DHT22;6392;44.644;11.448;2023-07-13T06:19:56;27.40;99.90
12655;DHT22;6392;44.644;11.448;2023-07-13T06:22:23;27.50;99.90
12655;DHT22;6392;44.644;11.448;2023-07-13T06:24:50;27.50;99.90
12655;DHT22;6392;44.644;11.448;2023-07-13T06:27:17;27.60;99.90
12655;DHT22;6392;44.644;11.448;2023-07-13T06:29:46;27.60;99.90
12655;DHT22;6392;44.644;11.448;2023-07-13T06:32:13;27.60;99.90
12655;DHT22;6392;44.644;11.448;2023-07-13T06:34:40;27.70;99.90
12655;DHT22;6392;44.644;11.448;2023-07-13T06:37:07;27.70;99.90
12655;DHT22;6392;44.644;11.448;2023-07-13T06:39:34;27.80;99.90
12655;DHT22;6392;44.644;11.448;2023-07-13T06:42:01;27.80;99.90
12655;DHT22;6392;44.644;11.448;2023-07-13T06:44:28;27.90;99.90
12655;DHT22;6392;44.644;11.448;2023-07-13T06:46:56;27.90;99.90
12655;DHT22;6392;44.644;11.448;2023-07-13T06:49:23;28.00;99.90
12655;DHT22;6392;44.644;11.448;2023-07-13T06:51:50;28.00;99.90
12655;DHT22;6392;44.644;11.448;2023-07-13T06:54:17;28.00;99.90
12655;DHT22;6392;44.644;11.448;2023-07-13T06:56:44;28.10;99.90
12655;DHT22;6392;44.644;11.448;2023-07-13T06:59:11;28.10;99.90
12655;DHT22;6392;44.644;11.448;2023-07-13T07:01:38;28.20;99.90
12655;DHT22;6392;44.644;11.448;2023-07-13T07:04:06;28.20;99.90
12655;DHT22;6392;44.644;11.448;2023-07-13T07:06:34;28.20;99.90
12655;DHT22;6392;44.644;11.448;2023-07-13T07:09:01;28.30;99.90
12655;DHT22;6392;44.644;11.448;2023-07-13T07:11:28;28.30;99.90
12655;DHT22;6392;44.644;11.448;2023-07-13T07:13:55;28.30;99.90
12655;DHT22;6392;44.644;11.448;2023-07-13T07:16:24;28.40;99.90
12655;DHT22;6392;44.644;11.448;2023-07-13T07:18:51;28.50;99.90
12655;DHT22;6392;44.644;11.448;2023-07-13T07:21:20;28.50;99.90
12655;DHT22;6392;44.644;11.448;2023-07-13T07:23:48;28.50;99.90
12655;DHT22;6392;44.644;11.448;2023-07-13T07:26:15;28.60;99.90
12655;DHT22;6392;44.644;11.448;2023-07-13T07:28:42;28.60;99.90
12655;DHT22;6392;44.644;11.448;2023-07-13T07:31:09;28.70;99.90
12655;DHT22;6392;44.644;11.448;2023-07-13T07:33:37;28.70;99.90
12655;DHT22;6392;44.644;11.448;2023-07-13T07:36:04;28.70;99.90
12655;DHT22;6392;44.644;11.448;2023-07-13T07:38:32;28.80;99.90
12655;DHT22;6392;44.644;11.448;2023-07-13T07:41:03;28.80;99.90
12655;DHT22;6392;44.644;11.448;2023-07-13T07:43:30;28.80;99.90
12655;DHT22;6392;44.644;11.448;2023-07-13T07:45:57;28.90;99.90
12655;DHT22;6392;44.644;11.448;2023-07-13T07:48:24;28.90;99.90
12655;DHT22;6392;44.644;11.448;2023-07-13T07:50:51;29.00;99.90
12655;DHT22;6392;44.644;11.448;2023-07-13T07:53:18;29.00;99.90
12655;DHT22;6392;44.644;11.448;2023-07-13T07:55:47;29.00;99.90
12655;DHT22;6392;44.644;11.448;2023-07-13T07:58:14;29.10;99.90
12655;DHT22;6392;44.644;11.448;2023-07-13T08:00:41;29.10;99.90
12655;DHT22;6392;44.644;11.448;2023-07-13T08:03:09;29.10;99.90
12655;DHT22;6392;44.644;11.448;2023-07-13T08:05:36;29.10;99.90
12655;DHT22;6392;44.644;11.448;2023-07-13T08:08:03;29.20;99.90
12655;DHT22;6392;44.644;11.448;2023-07-13T08:10:30;29.20;99.90
12655;DHT22;6392;44.644;11.448;2023-07-13T08:12:59;29.20;99.90
12655;DHT22;6392;44.644;11.448;2023-07-13T08:15:26;29.20;99.90
12655;DHT22;6392;44.644;11.448;2023-07-13T08:17:53;29.30;99.90
12655;DHT22;6392;44.644;11.448;2023-07-13T08:20:20;29.30;99.90
12655;DHT22;6392;44.644;11.448;2023-07-13T08:22:47;29.30;99.90
12655;DHT22;6392;44.644;11.448;2023-07-13T08:25:14;29.20;99.90
12655;DHT22;6392;44.644;11.448;2023-07-13T08:27:41;29.20;99.90
12655;DHT22;6392;44.644;11.448;2023-07-13T08:30:10;29.20;99.90
12655;DHT22;6392;44.644;11.448;2023-07-13T08:32:37;29.20;99.90
12655;DHT22;6392;44.644;11.448;2023-07-13T08:35:05;29.10;99.90
12655;DHT22;6392;44.644;11.448;2023-07-13T08:37:32;29.10;99.90
12655;DHT22;6392;44.644;11.448;2023-07-13T08:39:59;29.00;99.90
12655;DHT22;6392;44.644;11.448;2023-07-13T08:42:32;29.00;99.90
12655;DHT22;6392;44.644;11.448;2023-07-13T08:45:08;29.00;99.90
12655;DHT22;6392;44.644;11.448;2023-07-13T08:47:52;28.90;99.90
12655;DHT22;6392;44.644;11.448;2023-07-13T08:50:25;28.70;99.90
12655;DHT22;6392;44.644;11.448;2023-07-13T08:52:55;28.50;99.90
12655;DHT22;6392;44.644;11.448;2023-07-13T08:55:27;28.40;99.90
12655;DHT22;6392;44.644;11.448;2023-07-13T08:58:01;28.30;99.90
12655;DHT22;6392;44.644;11.448;2023-07-13T09:00:38;28.30;99.90
12655;DHT22;6392;44.644;11.448;2023-07-13T09:03:16;28.30;99.90
12655;DHT22;6392;44.644;11.448;2023-07-13T09:05:51;28.20;99.90
12655;DHT22;6392;44.644;11.448;2023-07-13T09:08:39;28.20;99.90
12655;DHT22;6392;44.644;11.448;2023-07-13T09:11:21;28.10;99.90
12655;DHT22;6392;44.644;11.448;2023-07-13T09:13:57;28.10;99.90
12655;DHT22;6392;44.644;11.448;2023-07-13T09:16:27;28.00;99.90
12655;DHT22;6392;44.644;11.448;2023-07-13T09:18:59;27.90;99.90
12655;DHT22;6392;44.644;11.448;2023-07-13T09:21:30;27.90;99.90
12655;DHT22;6392;44.644;11.448;2023-07-13T09:24:24;27.90;99.90
12655;DHT22;6392;44.644;11.448;2023-07-13T09:26:48;27.90;99.90
12655;DHT22;6392;44.644;11.448;2023-07-13T09:29:27;27.90;99.90
12655;DHT22;6392;44.644;11.448;2023-07-13T09:31:58;27.90;99.90
12655;DHT22;6392;44.644;11.448;2023-07-13T09:34:30;27.90;99.90
12655;DHT22;6392;44.644;11.448;2023-07-13T09:36:57;27.90;99.90
12655;DHT22;6392;44.644;11.448;2023-07-13T09:39:27;27.80;99.90
12655;DHT22;6392;44.644;11.448;2023-07-13T09:42:00;27.80;99.90
12655;DHT22;6392;44.644;11.448;2023-07-13T09:44:29;27.70;99.90
12655;DHT22;6392;44.644;11.448;2023-07-13T09:46:58;27.70;99.90
12655;DHT22;6392;44.644;11.448;2023-07-13T09:49:25;27.60;99.90
12655;DHT22;6392;44.644;11.448;2023-07-13T09:51:59;27.60;99.90
12655;DHT22;6392;44.644;11.448;2023-07-13T09:54:27;27.50;99.90
12655;DHT22;6392;44.644;11.448;2023-07-13T09:56:55;27.40;99.90
12655;DHT22;6392;44.644;11.448;2023-07-13T09:59:26;27.40;99.90
12655;DHT22;6392;44.644;11.448;2023-07-13T10:01:54;27.30;99.90
12655;DHT22;6392;44.644;11.448;2023-07-13T10:04:28;27.30;99.90
12655;DHT22;6392;44.644;11.448;2023-07-13T10:07:07;27.40;99.90
12655;DHT22;6392;44.644;11.448;2023-07-13T10:09:34;27.50;99.90
12655;DHT22;6392;44.644;11.448;2023-07-13T10:12:01;27.50;99.90
12655;DHT22;6392;44.644;11.448;2023-07-13T10:14:29;27.50;99.90
12655;DHT22;6392;44.644;11.448;2023-07-13T10:17:00;27.40;99.90
12655;DHT22;6392;44.644;11.448;2023-07-13T10:19:31;27.30;99.90
12655;DHT22;6392;44.644;11.448;2023-07-13T10:22:01;27.20;99.90
12655;DHT22;6392;44.644;11.448;2023-07-13T10:24:32;27.30;99.90
12655;DHT22;6392;44.644;11.448;2023-07-13T10:27:03;27.30;99.90
12655;DHT22;6392;44.644;11.448;2023-07-13T10:29:37;27.30;99.90
12655;DHT22;6392;44.644;11.448;2023-07-13T10:32:09;27.20;99.90
12655;DHT22;6392;44.644;11.448;2023-07-13T10:34:37;27.20;99.90
12655;DHT22;6392;44.644;11.448;2023-07-13T10:37:06;27.20;99.90
12655;DHT22;6392;44.644;11.448;2023-07-13T10:39:35;27.30;99.90
12655;DHT22;6392;44.644;11.448;2023-07-13T10:42:06;27.30;99.90
12655;DHT22;6392;44.644;11.448;2023-07-13T10:44:38;27.30;99.90
12655;DHT22;6392;44.644;11.448;2023-07-13T10:47:08;27.30;99.90
12655;DHT22;6392;44.644;11.448;2023-07-13T10:49:37;27.40;99.90
12655;DHT22;6392;44.644;11.448;2023-07-13T10:52:20;27.40;99.90
12655;DHT22;6392;44.644;11.448;2023-07-13T10:54:55;27.50;99.90
12655;DHT22;6392;44.644;11.448;2023-07-13T10:57:22;27.60;99.90
12655;DHT22;6392;44.644;11.448;2023-07-13T11:00:14;27.90;99.90
12655;DHT22;6392;44.644;11.448;2023-07-13T11:02:41;28.00;99.90
12655;DHT22;6392;44.644;11.448;2023-07-13T11:05:18;28.20;99.90
12655;DHT22;6392;44.644;11.448;2023-07-13T11:07:54;28.50;99.90
12655;DHT22;6392;44.644;11.448;2023-07-13T11:10:48;28.60;99.90
12655;DHT22;6392;44.644;11.448;2023-07-13T11:16:44;28.90;99.90
12655;DHT22;6392;44.644;11.448;2023-07-13T11:19:39;29.00;99.90
12655;DHT22;6392;44.644;11.448;2023-07-13T11:22:21;29.00;99.90
12655;DHT22;6392;44.644;11.448;2023-07-13T11:24:52;29.10;99.90
12655;DHT22;6392;44.644;11.448;2023-07-13T11:27:34;29.10;99.90
12655;DHT22;6392;44.644;11.448;2023-07-13T11:30:21;29.30;99.90
12655;DHT22;6392;44.644;11.448;2023-07-13T11:33:02;29.30;99.90
12655;DHT22;6392;44.644;11.448;2023-07-13T11:35:33;29.30;99.90
12655;DHT22;6392;44.644;11.448;2023-07-13T11:38:02;29.50;99.90
12655;DHT22;6392;44.644;11.448;2023-07-13T11:40:30;29.60;99.90
12655;DHT22;6392;44.644;11.448;2023-07-13T11:43:02;29.60;99.90
12655;DHT22;6392;44.644;11.448;2023-07-13T11:45:30;29.60;99.90
12655;DHT22;6392;44.644;11.448;2023-07-13T11:47:57;29.70;99.90
12655;DHT22;6392;44.644;11.448;2023-07-13T11:50:26;29.60;99.90
12655;DHT22;6392;44.644;11.448;2023-07-13T11:52:54;29.60;99.90
12655;DHT22;6392;44.644;11.448;2023-07-13T11:55:23;29.70;99.90
12655;DHT22;6392;44.644;11.448;2023-07-13T11:57:54;29.70;99.90
12655;DHT22;6392;44.644;11.448;2023-07-13T12:00:28;29.60;99.90
12655;DHT22;6392;44.644;11.448;2023-07-13T12:02:58;29.70;99.90
12655;DHT22;6392;44.644;11.448;2023-07-13T12:05:26;29.80;99.90
12655;DHT22;6392;44.644;11.448;2023-07-13T12:07:53;29.80;99.90
12655;DHT22;6392;44.644;11.448;2023-07-13T12:10:23;30.00;99.90
12655;DHT22;6392;44.644;11.448;2023-07-13T12:12:54;30.00;99.90
12655;DHT22;6392;44.644;11.448;2023-07-13T12:15:27;30.10;99.90
12655;DHT22;6392;44.644;11.448;2023-07-13T12:17:56;30.30;99.90
12655;DHT22;6392;44.644;11.448;2023-07-13T12:20:26;30.30;99.90
12655;DHT22;6392;44.644;11.448;2023-07-13T12:22:53;30.30;99.90
12655;DHT22;6392;44.644;11.448;2023-07-13T12:25:22;30.30;99.90
12655;DHT22;6392;44.644;11.448;2023-07-13T12:27:51;30.50;99.90
12655;DHT22;6392;44.644;11.448;2023-07-13T12:30:27;30.50;99.90
12655;DHT22;6392;44.644;11.448;2023-07-13T12:33:06;30.40;99.90
12655;DHT22;6392;44.644;11.448;2023-07-13T12:35:40;30.40;99.90
12655;DHT22;6392;44.644;11.448;2023-07-13T12:38:10;30.40;99.90
12655;DHT22;6392;44.644;11.448;2023-07-13T12:40:38;30.50;99.90
12655;DHT22;6392;44.644;11.448;2023-07-13T12:43:11;30.50;99.90
12655;DHT22;6392;44.644;11.448;2023-07-13T12:45:55;30.50;99.90
12655;DHT22;6392;44.644;11.448;2023-07-13T12:48:22;30.60;99.90
12655;DHT22;6392;44.644;11.448;2023-07-13T12:50:50;30.70;99.90
12655;DHT22;6392;44.644;11.448;2023-07-13T12:53:20;30.80;99.90
12655;DHT22;6392;44.644;11.448;2023-07-13T12:55:50;31.10;99.90
12655;DHT22;6392;44.644;11.448;2023-07-13T12:58:24;31.50;99.90
12655;DHT22;6392;44.644;11.448;2023-07-13T13:00:54;31.80;99.90
12655;DHT22;6392;44.644;11.448;2023-07-13T13:03:26;31.80;99.90
12655;DHT22;6392;44.644;11.448;2023-07-13T13:05:58;31.60;99.90
12655;DHT22;6392;44.644;11.448;2023-07-13T13:08:29;31.50;99.90
12655;DHT22;6392;44.644;11.448;2023-07-13T13:10:56;31.30;99.90
12655;DHT22;6392;44.644;11.448;2023-07-13T13:13:23;31.50;99.90
12655;DHT22;6392;44.644;11.448;2023-07-13T13:15:50;31.50;99.90
12655;DHT22;6392;44.644;11.448;2023-07-13T13:18:20;31.60;99.90
12655;DHT22;6392;44.644;11.448;2023-07-13T13:20:48;31.80;99.90
12655;DHT22;6392;44.644;11.448;2023-07-13T13:23:18;32.20;99.90
12655;DHT22;6392;44.644;11.448;2023-07-13T13:25:46;32.30;99.90
12655;DHT22;6392;44.644;11.448;2023-07-13T13:28:16;32.10;99.90
12655;DHT22;6392;44.644;11.448;2023-07-13T13:30:44;32.00;99.90
12655;DHT22;6392;44.644;11.448;2023-07-13T13:33:12;31.90;99.90
12655;DHT22;6392;44.644;11.448;2023-07-13T13:35:42;32.00;99.90
12655;DHT22;6392;44.644;11.448;2023-07-13T13:38:11;32.00;99.90
12655;DHT22;6392;44.644;11.448;2023-07-13T13:40:40;32.20;99.90
12655;DHT22;6392;44.644;11.448;2023-07-13T13:43:17;32.30;99.90
12655;DHT22;6392;44.644;11.448;2023-07-13T13:45:45;32.30;99.90
12655;DHT22;6392;44.644;11.448;2023-07-13T13:48:18;32.30;99.90
12655;DHT22;6392;44.644;11.448;2023-07-13T13:50:47;32.20;99.90
12655;DHT22;6392;44.644;11.448;2023-07-13T13:53:14;32.50;99.90
12655;DHT22;6392;44.644;11.448;2023-07-13T13:55:41;32.60;99.90
12655;DHT22;6392;44.644;11.448;2023-07-13T13:58:09;32.70;99.90
12655;DHT22;6392;44.644;11.448;2023-07-13T14:00:37;33.00;99.90
12655;DHT22;6392;44.644;11.448;2023-07-13T14:03:04;33.30;99.90
12655;DHT22;6392;44.644;11.448;2023-07-13T14:05:33;33.10;99.90
12655;DHT22;6392;44.644;11.448;2023-07-13T14:08:01;33.00;99.90
12655;DHT22;6392;44.644;11.448;2023-07-13T14:10:28;32.80;99.90
12655;DHT22;6392;44.644;11.448;2023-07-13T14:12:56;32.60;99.90
12655;DHT22;6392;44.644;11.448;2023-07-13T14:15:26;32.50;99.90
12655;DHT22;6392;44.644;11.448;2023-07-13T14:17:56;32.50;99.90
12655;DHT22;6392;44.644;11.448;2023-07-13T14:20:25;32.40;99.90
12655;DHT22;6392;44.644;11.448;2023-07-13T14:22:52;32.40;99.90
12655;DHT22;6392;44.644;11.448;2023-07-13T14:25:22;32.50;99.90
12655;DHT22;6392;44.644;11.448;2023-07-13T14:27:53;32.50;99.90
12655;DHT22;6392;44.644;11.448;2023-07-13T14:30:25;32.50;99.90
12655;DHT22;6392;44.644;11.448;2023-07-13T14:32:52;32.50;99.90
12655;DHT22;6392;44.644;11.448;2023-07-13T14:35:21;33.00;99.90
12655;DHT22;6392;44.644;11.448;2023-07-13T14:37:49;34.00;99.90
12655;DHT22;6392;44.644;11.448;2023-07-13T14:40:21;34.90;99.90
12655;DHT22;6392;44.644;11.448;2023-07-13T14:42:51;34.90;99.90
12655;DHT22;6392;44.644;11.448;2023-07-13T14:45:20;34.70;99.90
12655;DHT22;6392;44.644;11.448;2023-07-13T14:47:48;35.20;99.90
12655;DHT22;6392;44.644;11.448;2023-07-13T14:50:17;35.90;99.90
12655;DHT22;6392;44.644;11.448;2023-07-13T14:52:45;36.70;99.90
12655;DHT22;6392;44.644;11.448;2023-07-13T14:55:15;37.10;99.90
12655;DHT22;6392;44.644;11.448;2023-07-13T14:57:42;37.40;99.90
12655;DHT22;6392;44.644;11.448;2023-07-13T15:00:15;37.50;99.90
12655;DHT22;6392;44.644;11.448;2023-07-13T15:02:45;37.50;99.90
12655;DHT22;6392;44.644;11.448;2023-07-13T15:05:15;37.20;99.90
12655;DHT22;6392;44.644;11.448;2023-07-13T15:07:42;37.10;99.90
12655;DHT22;6392;44.644;11.448;2023-07-13T15:10:14;36.90;99.90
12655;DHT22;6392;44.644;11.448;2023-07-13T15:12:42;36.90;99.90
12655;DHT22;6392;44.644;11.448;2023-07-13T15:15:09;36.90;99.90
12655;DHT22;6392;44.644;11.448;2023-07-13T15:17:39;37.00;99.90
12655;DHT22;6392;44.644;11.448;2023-07-13T15:20:18;37.30;99.90
12655;DHT22;6392;44.644;11.448;2023-07-13T15:22:46;37.60;99.90
12655;DHT22;6392;44.644;11.448;2023-07-13T15:25:17;37.90;99.90
12655;DHT22;6392;44.644;11.448;2023-07-13T15:27:44;38.20;99.90
12655;DHT22;6392;44.644;11.448;2023-07-13T15:30:13;38.40;99.90
12655;DHT22;6392;44.644;11.448;2023-07-13T15:32:41;38.30;99.90
12655;DHT22;6392;44.644;11.448;2023-07-13T15:35:20;37.70;99.90
12655;DHT22;6392;44.644;11.448;2023-07-13T15:37:48;37.40;99.90
12655;DHT22;6392;44.644;11.448;2023-07-13T15:40:16;37.40;99.90
12655;DHT22;6392;44.644;11.448;2023-07-13T15:42:44;37.30;99.90
12655;DHT22;6392;44.644;11.448;2023-07-13T15:45:16;36.80;99.90